Time;durP1;ratioP1;P1;durP2;ratioP2;P2;SDS_P1;SDS_P2;PMS_P1;PMS_P2;Temp;Humidity;BMP_temperature;BMP_pressure;BME280_temperature;BME280_humidity;BME280_pressure;Samples;Min_cycle;Max_cycle;Signal;HPM_P1;HPM_P2
2022/06/06 00:01:18;;;;;;;10.10;3.45;;;;;;;13.63;100.00;101436.28;5051116;28;20388;-81
2022/06/06 00:03:45;;;;;;;8.15;3.50;;;;;;;13.88;100.00;101431.78;5050872;28;20052;-81
2022/06/06 00:06:20;;;;;;;6.70;2.88;;;;;;;14.05;100.00;101434.59;5051033;28;20481;-81
2022/06/06 00:08:48;;;;;;;8.52;3.47;;;;;;;13.68;100.00;101418.50;5050912;28;20131;-80
2022/06/06 00:11:16;;;;;;;6.78;2.95;;;;;;;13.58;100.00;101421.56;5052501;28;20045;-80
2022/06/06 00:13:44;;;;;;;6.85;2.85;;;;;;;13.70;100.00;101420.22;5051071;28;20052;-80
2022/06/06 00:16:13;;;;;;;8.75;4.20;;;;;;;13.46;100.00;101436.06;5051211;28;20057;-81
2022/06/06 00:18:43;;;;;;;7.85;3.80;;;;;;;13.66;100.00;101419.50;5040250;28;20056;-81
2022/06/06 00:21:11;;;;;;;8.90;4.30;;;;;;;13.59;100.00;101426.75;5048746;28;20053;-81
2022/06/06 00:23:39;;;;;;;8.98;3.95;;;;;;;13.57;100.00;101414.59;5051100;28;20068;-81
2022/06/06 00:26:09;;;;;;;8.68;3.15;;;;;;;13.95;100.00;101418.34;5050836;28;20079;-81
2022/06/06 00:28:37;;;;;;;8.32;4.40;;;;;;;13.57;100.00;101423.34;5050304;28;20049;-80
2022/06/06 00:36:37;;;;;;;8.50;3.63;;;;;;;13.36;100.00;101388.19;5051606;28;20057;-81
2022/06/06 00:39:06;;;;;;;9.23;2.70;;;;;;;13.36;100.00;101367.16;5050342;28;20060;-81
2022/06/06 00:41:39;;;;;;;7.50;3.53;;;;;;;13.45;100.00;101400.13;5051803;28;20055;-81
2022/06/06 00:44:14;;;;;;;7.27;3.17;;;;;;;13.64;100.00;101416.91;5050476;28;20080;-80
2022/06/06 00:46:46;;;;;;;5.90;2.50;;;;;;;13.93;100.00;101395.59;5050235;28;20289;-81
2022/06/06 00:49:24;;;;;;;6.72;2.85;;;;;;;14.08;100.00;101404.63;5051670;28;20060;-81
2022/06/06 00:51:54;;;;;;;5.90;2.70;;;;;;;14.10;100.00;101405.47;5043276;28;20052;-80
2022/06/06 00:54:23;;;;;;;6.60;2.85;;;;;;;14.29;100.00;101387.94;5047887;28;20041;-80
2022/06/06 00:56:55;;;;;;;9.60;3.22;;;;;;;13.92;100.00;101401.81;5050057;28;20483;-80
2022/06/06 00:59:27;;;;;;;7.05;3.00;;;;;;;13.89;100.00;101380.88;5050630;28;20483;-80
2022/06/06 01:01:55;;;;;;;8.40;3.53;;;;;;;13.88;100.00;101384.41;5050396;28;20609;-80
2022/06/06 01:04:25;;;;;;;8.50;3.50;;;;;;;13.78;100.00;101336.56;5050907;28;20048;-81
2022/06/06 01:06:52;;;;;;;6.70;2.85;;;;;;;14.12;100.00;101370.22;5051502;28;20055;-81
2022/06/06 01:09:22;;;;;;;7.57;3.20;;;;;;;14.31;100.00;101380.00;5051085;28;20055;-80
2022/06/06 01:11:55;;;;;;;7.97;3.17;;;;;;;14.15;100.00;101378.00;5050402;28;20059;-81
2022/06/06 01:14:25;;;;;;;6.88;2.83;;;;;;;14.34;100.00;101372.81;5050545;28;20051;-81
2022/06/06 01:17:02;;;;;;;7.15;3.08;;;;;;;14.24;100.00;101359.16;5049411;28;20076;-80
2022/06/06 01:19:38;;;;;;;6.63;2.72;;;;;;;14.61;100.00;101362.00;5049967;28;20045;-81
2022/06/06 01:22:29;;;;;;;6.07;2.38;;;;;;;14.83;100.00;101361.88;5050132;28;20048;-80
2022/06/06 01:25:12;;;;;;;5.85;2.63;;;;;;;14.68;100.00;101358.19;5050969;28;20060;-81
2022/06/06 01:27:45;;;;;;;5.93;2.60;;;;;;;14.54;100.00;101361.38;5050110;28;20099;-81
2022/06/06 01:30:19;;;;;;;7.45;2.95;;;;;;;14.28;100.00;101362.53;5050374;28;20494;-81
2022/06/06 01:32:52;;;;;;;8.48;3.20;;;;;;;14.32;100.00;101339.53;5050786;28;20048;-81
2022/06/06 01:35:39;;;;;;;6.55;2.63;;;;;;;14.41;100.00;101349.66;5051569;28;20525;-81
2022/06/06 01:38:08;;;;;;;6.65;2.67;;;;;;;14.40;100.00;101340.06;5041114;28;20088;-80
2022/06/06 01:40:57;;;;;;;9.48;3.50;;;;;;;14.16;100.00;101339.34;5036734;28;20055;-80
2022/06/06 01:43:44;;;;;;;7.20;2.90;;;;;;;14.47;100.00;101324.84;5053636;28;20046;-81
2022/06/06 01:46:22;;;;;;;9.45;3.55;;;;;;;13.97;100.00;101328.72;5054295;28;20102;-80
2022/06/06 01:48:50;;;;;;;9.80;3.35;;;;;;;14.40;100.00;101337.44;5054144;28;20479;-81
2022/06/06 01:51:23;;;;;;;8.88;4.25;;;;;;;14.24;100.00;101335.47;5053807;28;20053;-81
2022/06/06 01:53:50;;;;;;;7.28;3.13;;;;;;;14.09;100.00;101327.38;5055371;28;20056;-80
2022/06/06 01:56:22;;;;;;;12.10;3.13;;;;;;;14.28;100.00;101332.69;5054424;28;20064;-81
2022/06/06 01:58:48;;;;;;;5.90;2.50;;;;;;;14.46;100.00;101323.13;5053713;28;20136;-80
2022/06/06 02:01:15;;;;;;;7.43;3.13;;;;;;;14.71;100.00;101317.63;5053342;28;20055;-80
2022/06/06 02:03:43;;;;;;;7.03;2.50;;;;;;;14.64;100.00;101309.16;5053335;28;20049;-80
2022/06/06 02:06:10;;;;;;;5.82;2.30;;;;;;;14.57;100.00;101323.50;5053229;28;20106;-80
2022/06/06 02:08:37;;;;;;;6.88;2.90;;;;;;;14.14;100.00;101270.09;5051349;28;20084;-80
2022/06/06 02:11:05;;;;;;;6.80;3.05;;;;;;;14.42;100.00;101277.63;5053159;28;20423;-80
2022/06/06 02:13:32;;;;;;;7.20;2.90;;;;;;;14.55;100.00;101327.97;5054948;28;20468;-80
2022/06/06 02:16:00;;;;;;;8.00;3.03;;;;;;;14.65;100.00;101318.78;5052787;28;20067;-80
2022/06/06 02:18:27;;;;;;;7.88;2.97;;;;;;;14.29;100.00;101286.97;5053102;28;20140;-80
2022/06/06 02:20:55;;;;;;;6.32;2.65;;;;;;;14.36;100.00;101320.03;5069716;28;20391;-80
2022/06/06 02:23:22;;;;;;;6.18;2.47;;;;;;;14.34;100.00;101320.13;5053455;28;20049;-80
2022/06/06 02:25:49;;;;;;;6.93;3.00;;;;;;;14.58;100.00;101318.19;5053022;28;20045;-80
2022/06/06 02:28:15;;;;;;;6.88;2.78;;;;;;;14.53;100.00;101314.03;5053053;28;20406;-80
2022/06/06 02:30:43;;;;;;;8.32;2.60;;;;;;;14.33;100.00;101286.78;5053597;28;20053;-80
2022/06/06 02:33:09;;;;;;;10.10;3.20;;;;;;;14.32;100.00;101298.25;5052825;28;20049;-80
2022/06/06 02:35:39;;;;;;;8.20;3.55;;;;;;;14.32;100.00;101307.94;5053952;28;20055;-80
2022/06/06 02:38:07;;;;;;;6.82;2.78;;;;;;;14.01;100.00;101311.91;5052505;28;20555;-80
2022/06/06 02:40:34;;;;;;;8.48;2.80;;;;;;;14.45;100.00;101298.56;5039306;28;20051;-80
2022/06/06 02:43:01;;;;;;;5.60;2.40;;;;;;;14.57;100.00;101291.88;5053142;28;20392;-80
2022/06/06 02:45:28;;;;;;;7.05;2.78;;;;;;;14.44;100.00;101286.31;5052205;28;20052;-80
2022/06/06 02:47:57;;;;;;;6.13;2.40;;;;;;;14.03;100.00;101297.75;5053535;28;20052;-80
2022/06/06 02:50:29;;;;;;;5.97;2.38;;;;;;;13.96;100.00;101314.72;5053131;28;20466;-80
2022/06/06 02:52:56;;;;;;;4.70;1.90;;;;;;;14.20;100.00;101304.94;5035206;28;20037;-80
2022/06/06 02:55:23;;;;;;;4.50;2.10;;;;;;;14.20;100.00;101298.78;5052679;28;20056;-80
2022/06/06 02:57:52;;;;;;;7.20;3.15;;;;;;;13.85;100.00;101312.56;5052250;28;20071;-80
2022/06/06 03:00:24;;;;;;;9.02;2.80;;;;;;;13.51;100.00;101278.91;5052235;28;20045;-80
2022/06/06 03:02:51;;;;;;;4.53;2.20;;;;;;;13.74;100.00;101288.47;5052901;28;20041;-80
2022/06/06 03:05:18;;;;;;;8.13;2.88;;;;;;;13.53;100.00;101294.59;5053496;28;20045;-80
2022/06/06 03:07:48;;;;;;;7.85;3.33;;;;;;;13.54;100.00;101296.31;5051758;28;20069;-81
2022/06/06 03:10:20;;;;;;;6.07;2.60;;;;;;;13.71;100.00;101285.97;5043025;28;20055;-80
2022/06/06 03:13:02;;;;;;;6.88;2.35;;;;;;;13.96;100.00;101300.72;5052231;28;20068;-80
2022/06/06 03:22:26;;;;;;;5.47;2.22;;;;;;;14.11;100.00;101292.16;5052550;28;20497;-80
2022/06/06 03:25:12;;;;;;;5.40;2.25;;;;;;;13.62;100.00;101302.13;5065555;28;20041;-79
2022/06/06 03:27:53;;;;;;;5.88;2.47;;;;;;;14.00;100.00;101295.22;5052798;28;20055;-80
2022/06/06 03:30:48;;;;;;;4.95;2.20;;;;;;;13.72;100.00;101279.75;5052845;28;20052;-79
2022/06/06 03:33:18;;;;;;;7.68;2.28;;;;;;;13.63;100.00;101290.69;5051673;28;20044;-79
2022/06/06 03:36:16;;;;;;;5.97;2.00;;;;;;;14.03;100.00;101279.31;5051617;28;20053;-79
2022/06/06 03:38:54;;;;;;;8.70;3.10;;;;;;;13.98;100.00;101281.28;5046893;28;20471;-79
2022/06/06 03:41:49;;;;;;;5.55;2.28;;;;;;;13.94;100.00;101263.06;5042526;28;20068;-80
2022/06/06 03:44:54;;;;;;;7.60;2.60;;;;;;;13.87;100.00;101267.75;5051032;28;20787;-80
2022/06/06 03:47:29;;;;;;;6.10;2.30;;;;;;;13.64;100.00;101260.81;5050834;28;20047;-81
2022/06/06 03:49:56;;;;;;;6.68;2.70;;;;;;;13.73;100.00;101268.31;5051687;28;20059;-80
2022/06/06 03:52:35;;;;;;;8.20;2.72;;;;;;;13.67;100.00;101260.69;5051197;28;20055;-80
2022/06/06 03:55:11;;;;;;;7.95;3.47;;;;;;;13.64;100.00;101274.81;5052620;28;20103;-80
2022/06/06 03:57:39;;;;;;;6.22;2.40;;;;;;;13.89;100.00;101254.53;5050677;28;20136;-80
2022/06/06 04:00:12;;;;;;;6.68;2.53;;;;;;;13.98;100.00;101264.66;5051258;28;20411;-80
2022/06/06 04:02:42;;;;;;;7.45;2.45;;;;;;;13.90;100.00;101257.09;5050780;28;20049;-80
2022/06/06 04:05:16;;;;;;;6.20;2.50;;;;;;;14.02;100.00;101264.47;5050655;28;20384;-80
2022/06/06 04:07:43;;;;;;;6.95;2.75;;;;;;;13.59;100.00;101260.16;5051808;28;20049;-80
2022/06/06 04:10:12;;;;;;;7.03;2.85;;;;;;;13.94;100.00;101265.72;5051296;28;20415;-80
2022/06/06 04:12:54;;;;;;;5.82;2.30;;;;;;;14.07;100.00;101264.22;5051124;28;20079;-80
2022/06/06 04:15:43;;;;;;;6.88;2.70;;;;;;;14.00;100.00;101229.41;5051409;28;20075;-80
2022/06/06 04:18:28;;;;;;;6.65;2.40;;;;;;;13.97;100.00;101269.06;5052050;28;20395;-80
2022/06/06 04:20:57;;;;;;;6.30;2.47;;;;;;;13.84;100.00;101271.34;5043393;28;20399;-80
2022/06/06 04:24:10;;;;;;;6.05;2.30;;;;;;;13.79;100.00;101246.16;5051796;28;20049;-80
2022/06/06 04:26:42;;;;;;;6.03;2.63;;;;;;;13.81;100.00;101253.06;5043653;28;20116;-80
2022/06/06 04:29:15;;;;;;;6.00;2.35;;;;;;;13.84;100.00;101259.97;5050517;28;20045;-80
2022/06/06 04:32:00;;;;;;;8.10;2.97;;;;;;;13.81;100.00;101257.47;5050721;28;20053;-80
2022/06/06 04:34:35;;;;;;;7.03;2.17;;;;;;;13.81;100.00;101260.97;5039254;28;20045;-80
2022/06/06 04:37:13;;;;;;;6.90;2.50;;;;;;;13.59;100.00;101258.38;5050249;28;20045;-80
2022/06/06 04:39:57;;;;;;;7.63;2.63;;;;;;;13.71;100.00;101261.44;5050506;28;20519;-80
2022/06/06 04:42:48;;;;;;;7.75;2.88;;;;;;;13.96;100.00;101264.72;5050951;28;20045;-80
2022/06/06 04:45:20;;;;;;;6.32;2.40;;;;;;;13.77;100.00;101261.16;5051976;28;20041;-80
2022/06/06 04:47:49;;;;;;;7.80;2.90;;;;;;;13.90;100.00;101253.56;5052068;28;20406;-80
2022/06/06 04:50:20;;;;;;;6.28;2.40;;;;;;;13.91;100.00;101255.31;5051834;28;20044;-80
2022/06/06 04:52:58;;;;;;;6.18;2.40;;;;;;;13.82;100.00;101244.25;5050569;28;20438;-80
2022/06/06 04:55:27;;;;;;;5.85;2.22;;;;;;;13.82;100.00;101262.66;5066181;28;20119;-80
2022/06/06 04:57:55;;;;;;;5.95;2.25;;;;;;;13.79;100.00;101240.88;5050259;28;20049;-80
2022/06/06 05:00:24;;;;;;;6.32;2.22;;;;;;;14.03;100.00;101263.50;5050592;28;20057;-80
2022/06/06 05:02:52;;;;;;;7.03;2.70;;;;;;;13.65;100.00;101262.53;5049934;28;20053;-80
2022/06/06 05:05:20;;;;;;;7.13;2.55;;;;;;;13.68;100.00;101259.75;5050776;28;20049;-80
2022/06/06 05:08:15;;;;;;;4.78;1.95;;;;;;;13.72;100.00;101258.69;5050424;28;20045;-80
2022/06/06 05:11:17;;;;;;;4.95;2.10;;;;;;;13.94;100.00;101252.53;5046831;28;20063;-80
2022/06/06 05:14:03;;;;;;;6.20;2.35;;;;;;;13.93;100.00;101262.19;5037875;28;20052;-80
2022/06/06 05:17:07;;;;;;;5.53;2.33;;;;;;;14.03;100.00;101255.63;5053201;28;20593;-80
2022/06/06 05:20:00;;;;;;;7.10;2.88;;;;;;;14.09;100.00;101257.13;5054794;28;20081;-80
2022/06/06 05:23:04;;;;;;;7.25;2.42;;;;;;;13.86;100.00;101252.84;5053060;28;20049;-80
2022/06/06 05:25:34;;;;;;;5.65;2.30;;;;;;;13.83;100.00;101248.59;5054650;28;20067;-80
2022/06/06 05:28:08;;;;;;;7.90;2.95;;;;;;;13.50;100.00;101260.53;5055135;28;20052;-80
2022/06/06 05:30:50;;;;;;;4.30;2.00;;;;;;;13.79;100.00;101257.56;5054131;28;20460;-79
2022/06/06 05:33:26;;;;;;;5.88;2.20;;;;;;;13.85;100.00;101230.09;5053589;28;20674;-79
2022/06/06 05:36:08;;;;;;;5.43;2.15;;;;;;;14.21;100.00;101243.41;5040788;28;20045;-80
2022/06/06 05:38:44;;;;;;;6.22;2.47;;;;;;;13.79;100.00;101247.03;5054157;28;20380;-79
2022/06/06 05:41:26;;;;;;;5.05;2.20;;;;;;;14.32;100.00;101237.66;5054059;28;20045;-79
2022/06/06 05:44:21;;;;;;;8.68;2.90;;;;;;;14.10;100.00;101242.19;5054947;28;20063;-80
2022/06/06 05:47:04;;;;;;;7.68;2.42;;;;;;;14.38;100.00;101244.44;5051985;28;20055;-79
2022/06/06 05:49:48;;;;;;;5.50;2.20;;;;;;;14.14;100.00;101247.25;5041172;28;20045;-79
2022/06/06 05:52:34;;;;;;;4.18;1.60;;;;;;;14.08;100.00;101244.03;5046410;28;20455;-80
2022/06/06 05:55:22;;;;;;;7.35;2.65;;;;;;;14.01;100.00;101243.47;5054970;28;20057;-80
2022/06/06 05:57:52;;;;;;;7.53;3.15;;;;;;;13.91;100.00;101247.41;5053600;28;20053;-80
2022/06/06 06:00:31;;;;;;;6.18;2.72;;;;;;;13.89;100.00;101226.41;5053710;28;20053;-80
2022/06/06 06:03:35;;;;;;;6.78;2.40;;;;;;;14.18;100.00;101246.19;5054571;28;20055;-79
2022/06/06 06:06:12;;;;;;;7.32;3.10;;;;;;;14.19;100.00;101245.25;5054692;28;20467;-80
2022/06/06 06:08:45;;;;;;;6.32;2.50;;;;;;;14.31;100.00;101237.75;5054334;28;20414;-80
2022/06/06 06:11:21;;;;;;;8.20;3.00;;;;;;;14.16;100.00;101245.38;5053867;28;20052;-80
2022/06/06 06:13:58;;;;;;;6.82;2.72;;;;;;;14.19;100.00;101233.88;5041358;28;20392;-79
2022/06/06 06:16:31;;;;;;;6.15;2.38;;;;;;;14.17;100.00;101246.25;5053354;28;20056;-80
2022/06/06 06:19:08;;;;;;;7.78;2.80;;;;;;;13.91;100.00;101245.63;5053607;28;20040;-80
2022/06/06 06:21:41;;;;;;;6.30;2.47;;;;;;;14.11;100.00;101246.53;5053180;28;20049;-80
2022/06/06 06:24:14;;;;;;;5.85;2.40;;;;;;;14.38;100.00;101241.81;5053085;28;20056;-80
2022/06/06 06:26:42;;;;;;;6.63;3.08;;;;;;;13.82;100.00;101238.13;5053217;28;20049;-80
2022/06/06 06:29:10;;;;;;;7.25;2.75;;;;;;;14.16;100.00;101257.72;5054060;28;20055;-80
2022/06/06 06:32:08;;;;;;;6.85;3.00;;;;;;;14.21;100.00;101256.56;5053028;28;20163;-79
2022/06/06 06:34:58;;;;;;;7.07;2.83;;;;;;;14.09;100.00;101258.91;5043005;28;20041;-79
2022/06/06 06:37:34;;;;;;;7.35;3.03;;;;;;;13.59;100.00;101271.53;5052556;28;20064;-80
2022/06/06 06:40:01;;;;;;;6.35;2.47;;;;;;;14.08;100.00;101257.19;5050153;28;20045;-80
2022/06/06 06:42:40;;;;;;;6.80;2.58;;;;;;;13.98;100.00;101265.50;5052169;28;20475;-80
2022/06/06 06:45:42;;;;;;;6.90;2.88;;;;;;;13.71;100.00;101266.69;5052192;28;20041;-79
2022/06/06 06:48:12;;;;;;;7.07;3.00;;;;;;;13.91;100.00;101263.19;5044628;28;20144;-79
2022/06/06 06:51:04;;;;;;;6.90;3.08;;;;;;;13.94;100.00;101269.19;5052759;28;20052;-79
2022/06/06 06:53:42;;;;;;;5.72;2.47;;;;;;;13.84;100.00;101254.72;5040661;28;20044;-79
2022/06/06 06:56:22;;;;;;;6.70;2.75;;;;;;;13.95;100.00;101268.28;5054168;28;20045;-80
2022/06/06 06:58:53;;;;;;;7.13;2.70;;;;;;;13.76;100.00;101268.19;5052981;28;20053;-80
2022/06/06 07:01:35;;;;;;;9.20;2.75;;;;;;;14.41;100.00;101255.69;5052594;28;20049;-80
2022/06/06 07:11:01;;;;;;;6.10;2.70;;;;;;;13.89;100.00;101251.88;5043582;28;20130;-81
2022/06/06 07:13:34;;;;;;;;;;;;;;;14.34;100.00;101254.28;5053885;28;20045;-81
2022/06/06 07:16:21;;;;;;;12.73;3.08;;;;;;;14.19;100.00;101266.31;5052262;28;19943;-79
2022/06/06 07:19:15;;;;;;;6.22;2.58;;;;;;;14.59;100.00;101263.72;5038994;28;20045;-81
2022/06/06 07:21:45;;;;;;;6.72;2.60;;;;;;;14.67;100.00;101258.94;5048087;28;20058;-80
2022/06/06 07:24:17;;;;;;;5.30;2.03;;;;;;;14.83;100.00;101269.63;5051398;28;20045;-80
2022/06/06 07:26:45;;;;;;;5.13;1.90;;;;;;;14.82;100.00;101265.28;5052053;28;20049;-80
2022/06/06 07:29:15;;;;;;;6.50;2.17;;;;;;;14.74;100.00;101273.53;5051869;28;20053;-80
2022/06/06 07:32:16;;;;;;;6.30;2.35;;;;;;;14.78;100.00;101255.78;5052010;28;20132;-81
2022/06/06 07:35:00;;;;;;;7.30;2.78;;;;;;;14.42;100.00;101254.75;5053461;28;20052;-80
2022/06/06 07:37:49;;;;;;;8.80;3.80;;;;;;;14.27;100.00;101273.03;5050776;28;20313;-80
2022/06/06 07:40:37;;;;;;;7.30;2.58;;;;;;;14.56;100.00;101251.50;5047480;28;20049;-80
2022/06/06 07:43:32;;;;;;;5.22;2.40;;;;;;;14.74;100.00;101267.44;5052749;28;20365;-80
2022/06/06 07:46:16;;;;;;;5.43;2.30;;;;;;;14.60;100.00;101257.50;5037368;28;20051;-80
2022/06/06 07:48:51;;;;;;;4.82;2.05;;;;;;;14.76;100.00;101276.97;5051406;28;20067;-80
2022/06/06 07:51:18;;;;;;;5.20;2.17;;;;;;;14.44;100.00;101270.50;5051487;28;20063;-80
2022/06/06 07:53:57;;;;;;;4.88;2.25;;;;;;;14.54;100.00;101269.16;5050944;28;20051;-80
2022/06/06 07:56:45;;;;;;;5.70;2.40;;;;;;;14.75;100.00;101258.56;5050777;28;20119;-80
2022/06/06 07:59:24;;;;;;;5.63;2.08;;;;;;;14.92;100.00;101271.81;5050499;28;20110;-80
2022/06/06 08:01:57;;;;;;;5.60;2.60;;;;;;;15.02;100.00;101271.41;5051025;28;20071;-80
2022/06/06 08:04:54;;;;;;;6.25;2.35;;;;;;;14.95;100.00;101263.78;5052433;28;20049;-80
2022/06/06 08:07:42;;;;;;;4.78;2.10;;;;;;;15.38;100.00;101248.50;5030899;28;20064;-80
2022/06/06 08:10:18;;;;;;;5.93;1.98;;;;;;;15.13;100.00;101263.81;5051339;28;20052;-80
2022/06/06 08:13:17;;;;;;;4.85;2.17;;;;;;;14.97;100.00;101261.91;5050860;28;20382;-80
2022/06/06 08:16:09;;;;;;;6.68;2.90;;;;;;;14.66;100.00;101259.88;5051858;28;20487;-80
2022/06/06 08:18:58;;;;;;;7.05;2.83;;;;;;;14.96;100.00;101261.97;5051054;28;20634;-80
2022/06/06 08:21:39;;;;;;;5.63;2.10;;;;;;;15.08;100.00;101250.84;5050787;28;20100;-80
2022/06/06 08:24:11;;;;;;;6.78;2.72;;;;;;;15.34;100.00;101257.50;5038595;28;20071;-80
2022/06/06 08:27:00;;;;;;;6.28;2.20;;;;;;;15.23;100.00;101249.25;5050561;28;20052;-81
2022/06/06 08:29:28;;;;;;;6.57;2.30;;;;;;;15.12;100.00;101252.44;5050424;28;20063;-80
2022/06/06 08:31:55;;;;;;;5.95;2.33;;;;;;;14.75;100.00;101243.63;5050356;28;20049;-80
2022/06/06 08:34:21;;;;;;;8.23;3.17;;;;;;;15.06;100.00;101241.31;5052332;28;20483;-80
2022/06/06 08:37:11;;;;;;;6.60;2.20;;;;;;;15.33;100.00;101254.94;5050283;28;20044;-80
2022/06/06 08:39:48;;;;;;;5.82;2.20;;;;;;;15.50;100.00;101252.31;5051286;28;20053;-80
2022/06/06 08:42:23;;;;;;;6.45;2.42;;;;;;;15.58;100.00;101246.63;5052022;28;20467;-80
2022/06/06 08:45:16;;;;;;;7.43;2.35;;;;;;;15.40;100.00;101203.56;5050710;28;20068;-80
2022/06/06 08:48:07;;;;;;;5.28;1.92;;;;;;;15.80;97.44;101227.13;5047676;28;20053;-80
2022/06/06 08:50:46;;;;;;;4.63;1.92;;;;;;;15.91;94.47;101236.16;5061972;28;20059;-81
2022/06/06 08:53:25;;;;;;;4.22;1.75;;;;;;;16.22;92.04;101238.97;5051398;28;20064;-81
2022/06/06 08:56:04;;;;;;;5.60;2.03;;;;;;;15.94;92.68;101227.25;5049476;28;20045;-80
2022/06/06 08:58:58;;;;;;;6.22;1.88;;;;;;;16.42;89.32;101222.06;5034569;28;20057;-80
2022/06/06 09:01:41;;;;;;;7.82;2.30;;;;;;;16.61;86.65;101225.41;5050361;28;20045;-80
2022/06/06 09:04:29;;;;;;;6.45;2.55;;;;;;;16.84;87.37;101226.81;5050781;28;20124;-81
2022/06/06 09:07:03;;;;;;;6.13;2.00;;;;;;;16.82;84.05;101214.56;5039073;28;20080;-81
2022/06/06 09:09:57;;;;;;;5.93;2.67;;;;;;;17.43;84.44;101216.38;5051452;28;20132;-81
2022/06/06 09:12:46;;;;;;;4.32;1.75;;;;;;;17.52;83.65;101220.28;5051077;28;20045;-80
2022/06/06 09:15:24;;;;;;;6.88;2.20;;;;;;;17.78;80.68;101213.44;5050073;28;20053;-81
2022/06/06 09:18:13;;;;;;;8.65;2.40;;;;;;;17.30;83.30;101215.41;5050152;28;20564;-81
2022/06/06 09:20:40;;;;;;;5.40;2.03;;;;;;;16.88;83.73;101207.19;5039313;28;20479;-81
2022/06/06 09:23:51;;;;;;;6.60;2.30;;;;;;;16.62;84.35;101197.19;5049742;28;20049;-81
2022/06/06 09:26:38;;;;;;;7.15;2.53;;;;;;;17.08;81.58;101199.91;5039963;28;20055;-81
2022/06/06 09:29:40;;;;;;;6.22;1.90;;;;;;;18.01;78.33;101198.81;5049981;28;20095;-80
2022/06/06 09:32:45;;;;;;;6.85;2.60;;;;;;;17.01;80.67;101204.69;5049681;28;20103;-81
2022/06/06 09:35:30;;;;;;;7.25;2.42;;;;;;;17.65;77.58;101192.13;5050256;28;20059;-81
2022/06/06 09:38:27;;;;;;;5.53;2.10;;;;;;;18.01;74.82;101182.91;5049583;28;20049;-81
2022/06/06 09:41:16;;;;;;;6.03;2.60;;;;;;;17.01;79.46;101199.38;5036355;28;20399;-81
2022/06/06 09:43:49;;;;;;;7.25;2.60;;;;;;;17.20;80.63;101198.34;5049954;28;20053;-81
2022/06/06 09:46:34;;;;;;;6.00;2.40;;;;;;;17.61;79.78;101200.34;5051607;28;20455;-81
2022/06/06 09:49:20;;;;;;;9.45;3.05;;;;;;;16.88;80.46;101196.59;5049434;28;20045;-81
2022/06/06 09:52:02;;;;;;;9.48;2.90;;;;;;;17.17;82.00;101202.00;5035506;28;20090;-81
2022/06/06 10:00:58;;;;;;;6.55;2.25;;;;;;;18.33;76.03;101176.56;5051385;28;20382;-81
2022/06/06 10:03:54;;;;;;;8.23;2.78;;;;;;;17.65;77.90;101184.19;5051561;28;20053;-81
2022/06/06 10:06:40;;;;;;;5.85;2.50;;;;;;;17.95;79.16;101180.63;5053878;28;20140;-81
2022/06/06 10:09:31;;;;;;;5.32;2.10;;;;;;;17.77;79.46;101184.38;5053054;28;20057;-80
2022/06/06 10:12:23;;;;;;;7.13;2.30;;;;;;;17.76;78.69;101172.94;5053813;28;20606;-80
2022/06/06 10:14:58;;;;;;;8.05;3.38;;;;;;;17.34;81.26;101177.22;5052860;28;20049;-80
2022/06/06 10:17:44;;;;;;;6.28;2.50;;;;;;;17.60;82.55;101148.31;5053055;28;20124;-81
2022/06/06 10:20:17;;;;;;;8.40;2.53;;;;;;;17.73;81.87;101162.53;5052746;28;20051;-81
2022/06/06 10:23:18;;;;;;;7.75;2.67;;;;;;;17.40;82.52;101149.53;5050668;28;20053;-81
2022/06/06 10:26:06;;;;;;;7.50;2.63;;;;;;;17.51;79.65;101152.41;5039730;28;20052;-80
2022/06/06 10:28:39;;;;;;;6.50;2.60;;;;;;;17.61;79.80;101150.03;5053368;28;20055;-81
2022/06/06 10:31:55;;;;;;;8.57;2.60;;;;;;;17.86;76.75;101143.28;5052672;28;20059;-81
2022/06/06 10:34:41;;;;;;;7.80;2.53;;;;;;;18.40;75.29;101141.59;5052520;28;20057;-81
2022/06/06 10:37:10;;;;;;;6.28;2.30;;;;;;;19.38;74.11;101137.88;5052176;28;20071;-81
2022/06/06 10:39:59;;;;;;;6.32;2.30;;;;;;;18.59;73.85;101146.56;5052831;28;20068;-81
2022/06/06 10:42:34;;;;;;;7.85;2.50;;;;;;;18.69;74.01;101146.81;5052496;28;20384;-81
2022/06/06 10:45:09;;;;;;;6.90;2.50;;;;;;;18.88;73.28;101154.44;5052884;28;20049;-81
2022/06/06 10:47:56;;;;;;;5.82;2.20;;;;;;;18.90;72.32;101141.94;5052124;28;20041;-81
2022/06/06 10:54:02;;;;;;;7.32;2.50;;;;;;;18.37;73.52;101162.16;5043342;28;20049;-81
2022/06/06 10:57:06;;;;;;;6.10;2.13;;;;;;;18.64;74.18;101162.16;5047846;28;20053;-81
2022/06/06 10:59:55;;;;;;;10.55;2.70;;;;;;;18.94;72.86;101153.19;5048945;28;20041;-81
2022/06/06 11:02:30;;;;;;;6.15;2.17;;;;;;;18.86;71.76;101158.16;5052056;28;20049;-81
2022/06/06 11:05:18;;;;;;;5.18;2.10;;;;;;;19.32;70.61;101152.44;5052598;28;20495;-82
2022/06/06 11:08:19;;;;;;;7.55;2.20;;;;;;;18.50;72.01;101133.91;5051657;28;20041;-81
2022/06/06 11:11:08;;;;;;;4.60;1.80;;;;;;;18.62;72.65;101147.31;5043524;28;20475;-81
2022/06/06 11:13:41;;;;;;;7.80;2.38;;;;;;;19.72;71.25;101133.75;5053152;28;20426;-81
2022/06/06 11:16:17;;;;;;;5.72;2.10;;;;;;;19.47;70.26;101138.09;5053064;28;20457;-81
2022/06/06 11:19:04;;;;;;;5.43;1.90;;;;;;;19.58;69.07;101134.69;5051612;28;20080;-81
2022/06/06 11:22:02;;;;;;;8.35;2.33;;;;;;;19.03;69.09;101154.38;5052943;28;20063;-82
2022/06/06 11:24:54;;;;;;;4.88;2.03;;;;;;;19.47;70.20;101138.09;5043732;28;20137;-81
2022/06/06 11:27:35;;;;;;;7.68;2.50;;;;;;;19.03;70.63;101144.59;5038413;28;20383;-81
2022/06/06 11:30:37;;;;;;;7.63;2.42;;;;;;;19.40;69.49;101130.66;5051841;28;20489;-81
2022/06/06 11:33:40;;;;;;;7.22;2.58;;;;;;;19.24;69.48;101133.50;5051635;28;20479;-80
2022/06/06 11:36:26;;;;;;;5.20;2.20;;;;;;;19.04;69.12;101148.13;5037320;28;20103;-79
2022/06/06 11:38:55;;;;;;;4.68;1.90;;;;;;;19.02;70.02;101144.75;5048669;28;20041;-79
2022/06/06 11:41:46;;;;;;;7.63;2.33;;;;;;;18.54;73.81;101151.31;5053116;28;20053;-80
2022/06/06 11:44:32;;;;;;;8.23;2.40;;;;;;;18.87;73.37;101142.13;5052600;28;20071;-80
2022/06/06 11:47:08;;;;;;;10.15;2.45;;;;;;;19.47;72.62;101145.22;5041871;28;20049;-80
2022/06/06 11:50:02;;;;;;;7.20;2.58;;;;;;;18.98;73.45;101146.72;5050536;28;20399;-80
2022/06/06 11:52:34;;;;;;;10.20;2.40;;;;;;;19.23;74.47;101134.44;5051346;28;20595;-80
2022/06/06 11:55:16;;;;;;;6.82;2.35;;;;;;;19.20;73.10;101140.84;5034715;28;20053;-80
2022/06/06 11:57:58;;;;;;;9.85;2.33;;;;;;;19.49;74.17;101143.31;5051096;28;20049;-80
2022/06/06 12:00:48;;;;;;;7.55;2.45;;;;;;;19.67;71.71;101150.03;5050811;28;20048;-80
2022/06/06 12:03:15;;;;;;;7.47;2.42;;;;;;;19.65;71.94;101143.94;5050973;28;20410;-80
2022/06/06 12:06:03;;;;;;;7.78;2.40;;;;;;;19.41;75.20;101137.69;5051157;28;20482;-80
2022/06/06 12:08:35;;;;;;;7.00;2.60;;;;;;;19.89;73.63;101153.84;5050845;28;20041;-80
2022/06/06 12:11:35;;;;;;;7.85;2.42;;;;;;;19.19;74.30;101139.13;5051959;28;20415;-81
2022/06/06 12:14:14;;;;;;;7.53;2.47;;;;;;;18.94;74.33;101161.16;5050934;28;20051;-80
2022/06/06 12:17:06;;;;;;;7.05;2.63;;;;;;;19.28;74.81;101151.78;5051119;28;20052;-79
2022/06/06 12:19:56;;;;;;;6.63;2.65;;;;;;;19.20;76.66;101148.78;5050880;28;20080;-81
2022/06/06 12:22:54;;;;;;;5.63;2.28;;;;;;;19.21;75.51;101165.56;5039498;28;20624;-80
2022/06/06 12:25:32;;;;;;;8.05;2.60;;;;;;;18.92;78.63;101166.56;5050376;28;20128;-81
2022/06/06 12:28:11;;;;;;;8.98;2.92;;;;;;;18.77;79.81;101167.53;5050813;28;20060;-81
2022/06/06 12:31:07;;;;;;;5.15;2.15;;;;;;;19.05;81.12;101165.75;5050646;28;20047;-81
2022/06/06 12:33:42;;;;;;;7.68;2.50;;;;;;;19.14;81.80;101159.81;5041053;28;20133;-81
2022/06/06 12:36:21;;;;;;;10.80;2.88;;;;;;;18.65;82.15;101155.94;5051943;28;20124;-81
2022/06/06 12:38:59;;;;;;;7.75;2.80;;;;;;;18.75;82.06;101156.16;5049855;28;20059;-81
2022/06/06 12:41:44;;;;;;;7.28;2.42;;;;;;;19.03;82.41;101171.16;5052031;28;20060;-81
2022/06/06 12:44:27;;;;;;;7.35;2.50;;;;;;;18.33;86.09;101185.34;5050334;28;20056;-81